sensor_id;sensor_type;location;lat;lon;timestamp;pressure;altitude;pressure_sealevel;temperature;humidity
65276;BME280;51875;49.994;14.052;2022-11-24T00:00:32;97510.22;;;6.10;100.00
65276;BME280;51875;49.994;14.052;2022-11-24T00:02:08;97505.03;;;6.10;100.00
65276;BME280;51875;49.994;14.052;2022-11-24T00:03:23;97506.69;;;6.13;100.00
65276;BME280;51875;49.994;14.052;2022-11-24T00:04:39;97509.25;;;6.14;100.00
65276;BME280;51875;49.994;14.052;2022-11-24T00:05:54;97512.56;;;6.21;100.00
65276;BME280;51875;49.994;14.052;2022-11-24T00:07:10;97514.56;;;6.10;100.00
65276;BME280;51875;49.994;14.052;2022-11-24T00:08:25;97514.81;;;5.97;100.00
65276;BME280;51875;49.994;14.052;2022-11-24T00:09:41;97518.00;;;5.72;100.00
65276;BME280;51875;49.994;14.052;2022-11-24T00:11:08;97522.63;;;5.97;100.00
65276;BME280;51875;49.994;14.052;2022-11-24T00:12:24;97523.09;;;5.77;100.00
65276;BME280;51875;49.994;14.052;2022-11-24T00:13:40;97525.25;;;5.59;100.00
65276;BME280;51875;49.994;14.052;2022-11-24T00:14:55;97524.63;;;5.86;100.00
65276;BME280;51875;49.994;14.052;2022-11-24T00:16:16;97526.22;;;5.91;100.00
65276;BME280;51875;49.994;14.052;2022-11-24T00:17:32;97521.63;;;6.04;100.00
65276;BME280;51875;49.994;14.052;2022-11-24T00:18:49;97517.22;;;6.08;100.00
65276;BME280;51875;49.994;14.052;2022-11-24T00:20:05;97522.69;;;5.96;100.00
65276;BME280;51875;49.994;14.052;2022-11-24T00:21:22;97529.34;;;6.07;100.00
65276;BME280;51875;49.994;14.052;2022-11-24T00:22:37;97528.00;;;5.89;100.00
65276;BME280;51875;49.994;14.052;2022-11-24T00:23:53;97523.69;;;5.88;100.00
65276;BME280;51875;49.994;14.052;2022-11-24T00:25:09;97527.56;;;5.72;100.00
65276;BME280;51875;49.994;14.052;2022-11-24T00:26:27;97529.25;;;5.74;100.00
65276;BME280;51875;49.994;14.052;2022-11-24T00:27:43;97531.56;;;5.47;100.00
65276;BME280;51875;49.994;14.052;2022-11-24T00:29:00;97536.50;;;5.60;100.00
65276;BME280;51875;49.994;14.052;2022-11-24T00:30:16;97532.34;;;5.51;100.00
65276;BME280;51875;49.994;14.052;2022-11-24T00:31:35;97538.38;;;5.53;100.00
65276;BME280;51875;49.994;14.052;2022-11-24T00:32:51;97537.88;;;5.75;100.00
65276;BME280;51875;49.994;14.052;2022-11-24T00:34:10;97535.63;;;5.59;100.00
65276;BME280;51875;49.994;14.052;2022-11-24T00:35:27;97543.31;;;5.64;100.00
65276;BME280;51875;49.994;14.052;2022-11-24T00:36:42;97542.53;;;5.60;100.00
65276;BME280;51875;49.994;14.052;2022-11-24T00:37:58;97538.41;;;5.50;100.00
65276;BME280;51875;49.994;14.052;2022-11-24T00:39:14;97538.53;;;5.45;100.00
65276;BME280;51875;49.994;14.052;2022-11-24T00:40:30;97540.28;;;5.43;100.00
65276;BME280;51875;49.994;14.052;2022-11-24T00:41:45;97539.25;;;5.52;100.00
65276;BME280;51875;49.994;14.052;2022-11-24T00:43:01;97544.66;;;5.41;100.00
65276;BME280;51875;49.994;14.052;2022-11-24T00:44:16;97548.06;;;5.45;100.00
65276;BME280;51875;49.994;14.052;2022-11-24T00:45:32;97548.88;;;5.06;100.00
65276;BME280;51875;49.994;14.052;2022-11-24T00:46:47;97550.41;;;5.15;100.00
65276;BME280;51875;49.994;14.052;2022-11-24T00:48:03;97551.72;;;5.34;100.00
65276;BME280;51875;49.994;14.052;2022-11-24T00:49:18;97545.56;;;5.40;100.00
65276;BME280;51875;49.994;14.052;2022-11-24T00:50:34;97546.88;;;5.60;100.00
65276;BME280;51875;49.994;14.052;2022-11-24T00:51:50;97543.59;;;5.50;100.00
65276;BME280;51875;49.994;14.052;2022-11-24T00:53:05;97542.22;;;5.35;100.00
65276;BME280;51875;49.994;14.052;2022-11-24T00:54:21;97544.75;;;5.38;100.00
65276;BME280;51875;49.994;14.052;2022-11-24T00:55:37;97546.84;;;5.20;100.00
65276;BME280;51875;49.994;14.052;2022-11-24T00:56:52;97535.28;;;4.93;100.00
65276;BME280;51875;49.994;14.052;2022-11-24T00:58:07;97542.72;;;5.10;100.00
65276;BME280;51875;49.994;14.052;2022-11-24T00:59:23;97548.31;;;5.34;100.00
65276;BME280;51875;49.994;14.052;2022-11-24T01:00:39;97548.72;;;5.12;100.00
65276;BME280;51875;49.994;14.052;2022-11-24T01:01:54;97554.22;;;5.39;100.00
65276;BME280;51875;49.994;14.052;2022-11-24T01:03:11;97559.63;;;5.30;100.00
65276;BME280;51875;49.994;14.052;2022-11-24T01:04:27;97560.81;;;5.15;100.00
65276;BME280;51875;49.994;14.052;2022-11-24T01:05:43;97564.13;;;5.21;100.00
65276;BME280;51875;49.994;14.052;2022-11-24T01:06:59;97561.63;;;5.15;100.00
65276;BME280;51875;49.994;14.052;2022-11-24T01:08:14;97561.22;;;4.93;100.00
65276;BME280;51875;49.994;14.052;2022-11-24T01:09:30;97564.22;;;5.17;100.00
65276;BME280;51875;49.994;14.052;2022-11-24T01:10:46;97562.38;;;5.22;100.00
65276;BME280;51875;49.994;14.052;2022-11-24T01:12:02;97559.03;;;5.15;100.00
65276;BME280;51875;49.994;14.052;2022-11-24T01:13:18;97563.47;;;5.10;100.00
65276;BME280;51875;49.994;14.052;2022-11-24T01:14:33;97553.25;;;5.04;100.00
65276;BME280;51875;49.994;14.052;2022-11-24T01:15:49;97564.75;;;5.33;100.00
65276;BME280;51875;49.994;14.052;2022-11-24T01:17:05;97562.97;;;5.35;100.00
65276;BME280;51875;49.994;14.052;2022-11-24T01:18:20;97562.47;;;5.60;100.00
65276;BME280;51875;49.994;14.052;2022-11-24T01:19:36;97562.00;;;5.41;100.00
65276;BME280;51875;49.994;14.052;2022-11-24T01:20:51;97569.63;;;5.48;100.00
65276;BME280;51875;49.994;14.052;2022-11-24T01:22:07;97567.13;;;5.44;100.00
65276;BME280;51875;49.994;14.052;2022-11-24T01:23:22;97553.91;;;5.55;100.00
65276;BME280;51875;49.994;14.052;2022-11-24T01:24:38;97557.47;;;5.50;100.00
65276;BME280;51875;49.994;14.052;2022-11-24T01:25:54;97558.72;;;5.72;100.00
65276;BME280;51875;49.994;14.052;2022-11-24T01:27:09;97560.56;;;5.27;100.00
65276;BME280;51875;49.994;14.052;2022-11-24T01:28:25;97565.44;;;5.41;100.00
65276;BME280;51875;49.994;14.052;2022-11-24T01:29:40;97565.69;;;5.29;100.00
65276;BME280;51875;49.994;14.052;2022-11-24T01:31:01;97566.22;;;5.46;100.00
65276;BME280;51875;49.994;14.052;2022-11-24T01:32:17;97564.28;;;5.55;100.00
65276;BME280;51875;49.994;14.052;2022-11-24T01:33:33;97570.00;;;5.71;100.00
65276;BME280;51875;49.994;14.052;2022-11-24T01:34:49;97569.88;;;5.36;100.00
65276;BME280;51875;49.994;14.052;2022-11-24T01:36:05;97574.13;;;5.40;100.00
65276;BME280;51875;49.994;14.052;2022-11-24T01:37:21;97568.69;;;5.51;100.00
65276;BME280;51875;49.994;14.052;2022-11-24T01:38:37;97575.00;;;5.39;100.00
65276;BME280;51875;49.994;14.052;2022-11-24T01:39:53;97579.66;;;5.23;100.00
65276;BME280;51875;49.994;14.052;2022-11-24T01:41:17;97568.91;;;5.40;100.00
65276;BME280;51875;49.994;14.052;2022-11-24T01:42:45;97568.56;;;5.57;100.00
65276;BME280;51875;49.994;14.052;2022-11-24T01:44:19;97568.84;;;5.43;100.00
65276;BME280;51875;49.994;14.052;2022-11-24T01:45:37;97571.34;;;5.49;100.00
65276;BME280;51875;49.994;14.052;2022-11-24T01:46:59;97570.19;;;5.63;100.00
65276;BME280;51875;49.994;14.052;2022-11-24T01:48:33;97567.84;;;5.50;100.00
65276;BME280;51875;49.994;14.052;2022-11-24T01:49:53;97568.66;;;5.10;100.00
65276;BME280;51875;49.994;14.052;2022-11-24T01:51:13;97585.94;;;5.13;100.00
65276;BME280;51875;49.994;14.052;2022-11-24T01:52:36;97584.84;;;5.23;100.00
65276;BME280;51875;49.994;14.052;2022-11-24T01:54:00;97587.25;;;5.32;100.00
65276;BME280;51875;49.994;14.052;2022-11-24T01:55:20;97588.94;;;5.35;100.00
65276;BME280;51875;49.994;14.052;2022-11-24T01:56:39;97586.56;;;5.24;100.00
65276;BME280;51875;49.994;14.052;2022-11-24T01:58:06;97585.09;;;5.11;100.00
65276;BME280;51875;49.994;14.052;2022-11-24T01:59:24;97600.03;;;4.98;100.00
65276;BME280;51875;49.994;14.052;2022-11-24T02:00:43;97589.44;;;5.10;100.00
65276;BME280;51875;49.994;14.052;2022-11-24T02:01:59;97598.03;;;5.12;100.00
65276;BME280;51875;49.994;14.052;2022-11-24T02:03:19;97590.81;;;5.28;100.00
65276;BME280;51875;49.994;14.052;2022-11-24T02:04:37;97594.34;;;5.24;100.00
65276;BME280;51875;49.994;14.052;2022-11-24T02:06:05;97586.44;;;5.30;100.00
65276;BME280;51875;49.994;14.052;2022-11-24T02:07:23;97587.56;;;5.58;100.00
65276;BME280;51875;49.994;14.052;2022-11-24T02:10:01;97588.19;;;5.71;100.00
65276;BME280;51875;49.994;14.052;2022-11-24T02:11:17;97590.50;;;5.42;100.00
65276;BME280;51875;49.994;14.052;2022-11-24T02:12:33;97594.94;;;5.39;100.00
65276;BME280;51875;49.994;14.052;2022-11-24T02:13:52;97596.50;;;5.44;100.00
65276;BME280;51875;49.994;14.052;2022-11-24T02:15:08;97592.94;;;5.50;100.00
65276;BME280;51875;49.994;14.052;2022-11-24T02:16:25;97587.72;;;5.51;100.00
65276;BME280;51875;49.994;14.052;2022-11-24T02:17:40;97592.59;;;5.65;100.00
65276;BME280;51875;49.994;14.052;2022-11-24T02:18:56;97588.13;;;5.72;100.00
65276;BME280;51875;49.994;14.052;2022-11-24T02:20:12;97592.28;;;5.40;100.00
65276;BME280;51875;49.994;14.052;2022-11-24T02:21:29;97596.69;;;5.36;100.00
65276;BME280;51875;49.994;14.052;2022-11-24T02:24:37;97591.72;;;5.26;100.00
65276;BME280;51875;49.994;14.052;2022-11-24T02:26:06;97589.84;;;5.32;100.00
65276;BME280;51875;49.994;14.052;2022-11-24T02:27:25;97583.34;;;5.54;100.00
65276;BME280;51875;49.994;14.052;2022-11-24T02:28:40;97584.50;;;5.40;100.00
65276;BME280;51875;49.994;14.052;2022-11-24T02:29:56;97586.50;;;5.27;100.00
65276;BME280;51875;49.994;14.052;2022-11-24T02:31:12;97589.19;;;5.22;100.00
65276;BME280;51875;49.994;14.052;2022-11-24T02:32:29;97585.84;;;5.17;100.00
65276;BME280;51875;49.994;14.052;2022-11-24T02:33:47;97583.09;;;5.25;100.00
65276;BME280;51875;49.994;14.052;2022-11-24T02:35:05;97587.59;;;5.15;100.00
65276;BME280;51875;49.994;14.052;2022-11-24T02:36:22;97586.69;;;5.16;100.00
65276;BME280;51875;49.994;14.052;2022-11-24T02:37:38;97591.84;;;5.19;100.00
65276;BME280;51875;49.994;14.052;2022-11-24T02:38:54;97587.41;;;5.25;100.00
65276;BME280;51875;49.994;14.052;2022-11-24T02:40:10;97590.09;;;5.20;100.00
65276;BME280;51875;49.994;14.052;2022-11-24T02:41:26;97593.56;;;5.19;100.00
65276;BME280;51875;49.994;14.052;2022-11-24T02:42:44;97590.91;;;5.23;100.00
65276;BME280;51875;49.994;14.052;2022-11-24T02:44:01;97584.09;;;5.18;100.00
65276;BME280;51875;49.994;14.052;2022-11-24T02:45:17;97588.38;;;5.19;100.00
65276;BME280;51875;49.994;14.052;2022-11-24T02:46:32;97592.91;;;5.11;100.00
65276;BME280;51875;49.994;14.052;2022-11-24T02:47:48;97586.19;;;5.41;100.00
65276;BME280;51875;49.994;14.052;2022-11-24T02:49:03;97592.44;;;5.32;100.00
65276;BME280;51875;49.994;14.052;2022-11-24T02:50:19;97592.50;;;5.29;100.00
65276;BME280;51875;49.994;14.052;2022-11-24T02:51:35;97591.31;;;5.46;100.00
65276;BME280;51875;49.994;14.052;2022-11-24T02:52:50;97589.66;;;5.42;100.00
65276;BME280;51875;49.994;14.052;2022-11-24T02:54:06;97589.31;;;5.59;100.00
65276;BME280;51875;49.994;14.052;2022-11-24T02:55:22;97588.47;;;5.57;100.00
65276;BME280;51875;49.994;14.052;2022-11-24T02:56:37;97591.78;;;5.63;100.00
65276;BME280;51875;49.994;14.052;2022-11-24T02:57:53;97582.28;;;5.64;100.00
65276;BME280;51875;49.994;14.052;2022-11-24T02:59:08;97598.81;;;5.60;100.00
65276;BME280;51875;49.994;14.052;2022-11-24T03:00:24;97587.78;;;5.48;100.00
65276;BME280;51875;49.994;14.052;2022-11-24T03:01:40;97591.31;;;5.46;100.00
65276;BME280;51875;49.994;14.052;2022-11-24T03:02:55;97592.69;;;5.20;100.00
65276;BME280;51875;49.994;14.052;2022-11-24T03:04:11;97580.19;;;5.39;100.00
65276;BME280;51875;49.994;14.052;2022-11-24T03:05:27;97590.47;;;5.45;100.00
65276;BME280;51875;49.994;14.052;2022-11-24T03:06:42;97588.84;;;5.40;100.00
65276;BME280;51875;49.994;14.052;2022-11-24T03:07:58;97593.16;;;5.39;100.00
65276;BME280;51875;49.994;14.052;2022-11-24T03:09:13;97589.81;;;5.34;100.00
65276;BME280;51875;49.994;14.052;2022-11-24T03:10:29;97593.41;;;5.27;100.00
65276;BME280;51875;49.994;14.052;2022-11-24T03:11:45;97590.00;;;5.25;100.00
65276;BME280;51875;49.994;14.052;2022-11-24T03:13:00;97590.91;;;5.23;100.00
65276;BME280;51875;49.994;14.052;2022-11-24T03:14:16;97594.03;;;5.40;100.00
65276;BME280;51875;49.994;14.052;2022-11-24T03:15:32;97606.09;;;5.42;100.00
65276;BME280;51875;49.994;14.052;2022-11-24T03:16:47;97599.06;;;5.47;100.00
65276;BME280;51875;49.994;14.052;2022-11-24T03:18:04;97596.97;;;5.24;100.00
65276;BME280;51875;49.994;14.052;2022-11-24T03:19:19;97603.06;;;4.74;100.00
65276;BME280;51875;49.994;14.052;2022-11-24T03:20:35;97598.56;;;4.84;100.00
65276;BME280;51875;49.994;14.052;2022-11-24T03:21:50;97599.09;;;5.02;100.00
65276;BME280;51875;49.994;14.052;2022-11-24T03:23:06;97605.53;;;4.80;100.00
65276;BME280;51875;49.994;14.052;2022-11-24T03:24:21;97606.88;;;5.02;100.00
65276;BME280;51875;49.994;14.052;2022-11-24T03:25:37;97597.94;;;5.18;100.00
65276;BME280;51875;49.994;14.052;2022-11-24T03:26:53;97600.31;;;5.28;100.00
65276;BME280;51875;49.994;14.052;2022-11-24T03:28:09;97596.91;;;5.26;100.00
65276;BME280;51875;49.994;14.052;2022-11-24T03:29:24;97605.00;;;5.08;100.00
65276;BME280;51875;49.994;14.052;2022-11-24T03:30:40;97598.03;;;5.12;100.00
65276;BME280;51875;49.994;14.052;2022-11-24T03:31:56;97605.66;;;5.20;100.00
65276;BME280;51875;49.994;14.052;2022-11-24T03:33:12;97607.72;;;5.04;100.00
65276;BME280;51875;49.994;14.052;2022-11-24T03:34:28;97616.97;;;5.17;100.00
65276;BME280;51875;49.994;14.052;2022-11-24T03:35:44;97609.13;;;5.20;100.00
65276;BME280;51875;49.994;14.052;2022-11-24T03:36:59;97604.00;;;5.17;100.00
65276;BME280;51875;49.994;14.052;2022-11-24T03:38:15;97614.50;;;5.11;100.00
65276;BME280;51875;49.994;14.052;2022-11-24T03:39:30;97617.09;;;5.09;100.00
65276;BME280;51875;49.994;14.052;2022-11-24T03:40:46;97624.94;;;5.08;100.00
65276;BME280;51875;49.994;14.052;2022-11-24T03:42:02;97632.63;;;5.13;100.00
65276;BME280;51875;49.994;14.052;2022-11-24T03:43:17;97618.72;;;5.15;100.00
65276;BME280;51875;49.994;14.052;2022-11-24T03:44:33;97616.53;;;5.39;100.00
65276;BME280;51875;49.994;14.052;2022-11-24T03:45:49;97623.47;;;5.39;100.00
65276;BME280;51875;49.994;14.052;2022-11-24T03:47:04;97620.75;;;5.45;100.00
65276;BME280;51875;49.994;14.052;2022-11-24T03:48:19;97628.28;;;5.13;100.00
65276;BME280;51875;49.994;14.052;2022-11-24T03:49:36;97616.84;;;5.23;100.00
65276;BME280;51875;49.994;14.052;2022-11-24T03:50:55;97623.66;;;5.31;100.00
65276;BME280;51875;49.994;14.052;2022-11-24T03:52:11;97621.06;;;5.29;100.00
65276;BME280;51875;49.994;14.052;2022-11-24T03:53:29;97626.84;;;5.42;100.00
65276;BME280;51875;49.994;14.052;2022-11-24T03:54:44;97624.16;;;5.47;100.00
65276;BME280;51875;49.994;14.052;2022-11-24T03:56:02;97624.47;;;5.31;100.00
65276;BME280;51875;49.994;14.052;2022-11-24T03:57:18;97627.00;;;5.34;100.00
65276;BME280;51875;49.994;14.052;2022-11-24T03:58:33;97624.31;;;5.39;100.00
65276;BME280;51875;49.994;14.052;2022-11-24T03:59:49;97621.22;;;5.20;100.00
65276;BME280;51875;49.994;14.052;2022-11-24T04:01:05;97621.78;;;5.36;100.00
65276;BME280;51875;49.994;14.052;2022-11-24T04:02:20;97621.81;;;5.34;100.00
65276;BME280;51875;49.994;14.052;2022-11-24T04:03:36;97619.03;;;5.44;100.00
65276;BME280;51875;49.994;14.052;2022-11-24T04:04:51;97624.06;;;5.53;100.00
65276;BME280;51875;49.994;14.052;2022-11-24T04:06:07;97619.84;;;5.46;100.00
65276;BME280;51875;49.994;14.052;2022-11-24T04:07:22;97628.31;;;5.56;100.00
65276;BME280;51875;49.994;14.052;2022-11-24T04:08:38;97631.84;;;5.53;100.00
65276;BME280;51875;49.994;14.052;2022-11-24T04:09:53;97632.28;;;5.30;100.00
65276;BME280;51875;49.994;14.052;2022-11-24T04:11:09;97630.72;;;5.22;100.00
65276;BME280;51875;49.994;14.052;2022-11-24T04:12:45;97637.63;;;5.22;100.00
65276;BME280;51875;49.994;14.052;2022-11-24T04:14:00;97639.09;;;5.35;100.00
65276;BME280;51875;49.994;14.052;2022-11-24T04:15:18;97632.03;;;5.44;100.00
65276;BME280;51875;49.994;14.052;2022-11-24T04:16:34;97638.84;;;5.48;100.00
65276;BME280;51875;49.994;14.052;2022-11-24T04:17:49;97633.63;;;5.49;100.00
65276;BME280;51875;49.994;14.052;2022-11-24T04:19:05;97639.81;;;5.44;100.00
65276;BME280;51875;49.994;14.052;2022-11-24T04:20:21;97639.88;;;5.41;100.00
65276;BME280;51875;49.994;14.052;2022-11-24T04:21:37;97639.63;;;5.53;100.00
65276;BME280;51875;49.994;14.052;2022-11-24T04:22:52;97639.25;;;5.28;100.00
65276;BME280;51875;49.994;14.052;2022-11-24T04:24:08;97637.59;;;5.25;100.00
65276;BME280;51875;49.994;14.052;2022-11-24T04:25:23;97645.47;;;5.19;100.00
65276;BME280;51875;49.994;14.052;2022-11-24T04:26:39;97643.78;;;5.16;100.00
65276;BME280;51875;49.994;14.052;2022-11-24T04:27:55;97646.88;;;5.37;100.00
65276;BME280;51875;49.994;14.052;2022-11-24T04:29:11;97647.69;;;5.37;100.00
65276;BME280;51875;49.994;14.052;2022-11-24T04:30:27;97643.91;;;5.12;100.00
65276;BME280;51875;49.994;14.052;2022-11-24T04:31:43;97640.13;;;5.27;100.00
65276;BME280;51875;49.994;14.052;2022-11-24T04:32:58;97649.88;;;5.15;100.00
65276;BME280;51875;49.994;14.052;2022-11-24T04:34:14;97646.50;;;5.12;100.00
65276;BME280;51875;49.994;14.052;2022-11-24T04:35:29;97647.84;;;5.31;100.00
65276;BME280;51875;49.994;14.052;2022-11-24T04:36:45;97653.75;;;5.38;100.00
65276;BME280;51875;49.994;14.052;2022-11-24T04:38:01;97648.44;;;5.44;100.00
65276;BME280;51875;49.994;14.052;2022-11-24T04:39:17;97653.78;;;5.36;100.00
65276;BME280;51875;49.994;14.052;2022-11-24T04:40:32;97651.09;;;5.43;100.00
65276;BME280;51875;49.994;14.052;2022-11-24T04:41:48;97660.59;;;5.44;100.00
65276;BME280;51875;49.994;14.052;2022-11-24T04:43:04;97657.47;;;5.26;100.00
65276;BME280;51875;49.994;14.052;2022-11-24T04:44:19;97663.66;;;5.19;100.00
65276;BME280;51875;49.994;14.052;2022-11-24T04:45:35;97661.09;;;5.17;100.00
65276;BME280;51875;49.994;14.052;2022-11-24T04:46:51;97675.13;;;5.05;100.00
65276;BME280;51875;49.994;14.052;2022-11-24T04:48:06;97677.53;;;5.16;100.00
65276;BME280;51875;49.994;14.052;2022-11-24T04:49:22;97669.69;;;5.19;100.00
65276;BME280;51875;49.994;14.052;2022-11-24T04:50:37;97680.44;;;4.99;100.00
65276;BME280;51875;49.994;14.052;2022-11-24T04:51:54;97676.78;;;5.09;100.00
65276;BME280;51875;49.994;14.052;2022-11-24T04:53:10;97674.94;;;5.16;100.00
65276;BME280;51875;49.994;14.052;2022-11-24T04:54:25;97675.56;;;5.29;100.00
65276;BME280;51875;49.994;14.052;2022-11-24T04:55:41;97678.97;;;5.33;100.00
65276;BME280;51875;49.994;14.052;2022-11-24T04:56:56;97677.34;;;5.26;100.00
65276;BME280;51875;49.994;14.052;2022-11-24T04:58:12;97671.28;;;5.27;100.00
65276;BME280;51875;49.994;14.052;2022-11-24T04:59:27;97673.13;;;5.21;100.00
65276;BME280;51875;49.994;14.052;2022-11-24T05:00:43;97672.16;;;5.27;100.00
65276;BME280;51875;49.994;14.052;2022-11-24T05:02:00;97676.31;;;5.36;100.00
65276;BME280;51875;49.994;14.052;2022-11-24T05:03:16;97678.84;;;5.39;100.00
65276;BME280;51875;49.994;14.052;2022-11-24T05:04:31;97680.59;;;5.37;100.00
65276;BME280;51875;49.994;14.052;2022-11-24T05:05:47;97685.66;;;5.43;100.00
65276;BME280;51875;49.994;14.052;2022-11-24T05:07:02;97689.25;;;5.37;100.00
65276;BME280;51875;49.994;14.052;2022-11-24T05:08:18;97686.53;;;5.44;100.00
65276;BME280;51875;49.994;14.052;2022-11-24T05:09:33;97684.09;;;5.34;100.00
65276;BME280;51875;49.994;14.052;2022-11-24T05:11:09;97692.63;;;5.41;100.00
65276;BME280;51875;49.994;14.052;2022-11-24T05:12:25;97688.31;;;5.42;100.00
65276;BME280;51875;49.994;14.052;2022-11-24T05:13:45;97693.06;;;5.19;100.00
65276;BME280;51875;49.994;14.052;2022-11-24T05:15:02;97694.56;;;5.30;100.00
65276;BME280;51875;49.994;14.052;2022-11-24T05:16:18;97694.56;;;5.30;100.00
65276;BME280;51875;49.994;14.052;2022-11-24T05:17:37;97691.16;;;5.28;100.00
65276;BME280;51875;49.994;14.052;2022-11-24T05:18:53;97697.16;;;5.30;100.00
65276;BME280;51875;49.994;14.052;2022-11-24T05:20:08;97695.44;;;5.32;100.00
65276;BME280;51875;49.994;14.052;2022-11-24T05:21:24;97690.91;;;4.93;100.00
65276;BME280;51875;49.994;14.052;2022-11-24T05:22:40;97696.97;;;4.93;100.00
65276;BME280;51875;49.994;14.052;2022-11-24T05:23:55;97694.09;;;5.11;100.00
65276;BME280;51875;49.994;14.052;2022-11-24T05:25:11;97696.84;;;5.00;100.00
65276;BME280;51875;49.994;14.052;2022-11-24T05:26:27;97699.63;;;4.89;100.00
65276;BME280;51875;49.994;14.052;2022-11-24T05:27:43;97705.47;;;5.02;100.00
65276;BME280;51875;49.994;14.052;2022-11-24T05:28:59;97703.09;;;4.89;100.00
65276;BME280;51875;49.994;14.052;2022-11-24T05:30:14;97710.63;;;5.05;100.00
65276;BME280;51875;49.994;14.052;2022-11-24T05:31:30;97712.13;;;5.15;100.00
65276;BME280;51875;49.994;14.052;2022-11-24T05:32:45;97707.84;;;5.14;100.00
65276;BME280;51875;49.994;14.052;2022-11-24T05:34:01;97711.97;;;5.25;100.00
65276;BME280;51875;49.994;14.052;2022-11-24T05:35:16;97716.38;;;5.21;100.00
65276;BME280;51875;49.994;14.052;2022-11-24T05:36:33;97715.53;;;5.20;100.00
65276;BME280;51875;49.994;14.052;2022-11-24T05:38:07;97725.22;;;5.11;100.00
65276;BME280;51875;49.994;14.052;2022-11-24T05:39:22;97725.09;;;5.18;100.00
65276;BME280;51875;49.994;14.052;2022-11-24T05:40:38;97718.81;;;5.29;100.00
65276;BME280;51875;49.994;14.052;2022-11-24T05:41:54;97724.00;;;5.29;100.00
65276;BME280;51875;49.994;14.052;2022-11-24T05:43:14;97717.00;;;5.34;100.00
65276;BME280;51875;49.994;14.052;2022-11-24T05:44:29;97726.44;;;5.38;100.00
65276;BME280;51875;49.994;14.052;2022-11-24T05:45:45;97723.84;;;5.38;100.00
65276;BME280;51875;49.994;14.052;2022-11-24T05:47:00;97725.53;;;5.41;100.00
65276;BME280;51875;49.994;14.052;2022-11-24T05:48:16;97730.69;;;5.42;100.00
65276;BME280;51875;49.994;14.052;2022-11-24T05:49:32;97725.63;;;5.36;100.00
65276;BME280;51875;49.994;14.052;2022-11-24T05:50:53;97735.06;;;5.40;100.00
65276;BME280;51875;49.994;14.052;2022-11-24T05:52:09;97722.81;;;5.47;100.00
65276;BME280;51875;49.994;14.052;2022-11-24T05:53:25;97727.19;;;5.46;100.00
65276;BME280;51875;49.994;14.052;2022-11-24T05:54:41;97732.38;;;5.46;100.00
65276;BME280;51875;49.994;14.052;2022-11-24T05:55:56;97728.91;;;5.44;100.00
65276;BME280;51875;49.994;14.052;2022-11-24T05:57:12;97728.88;;;5.47;100.00
65276;BME280;51875;49.994;14.052;2022-11-24T05:58:28;97731.47;;;5.47;100.00
65276;BME280;51875;49.994;14.052;2022-11-24T05:59:43;97726.28;;;5.47;100.00
65276;BME280;51875;49.994;14.052;2022-11-24T06:00:59;97734.91;;;5.49;100.00
65276;BME280;51875;49.994;14.052;2022-11-24T06:02:15;97739.66;;;5.26;100.00
65276;BME280;51875;49.994;14.052;2022-11-24T06:03:30;97736.75;;;5.43;100.00
65276;BME280;51875;49.994;14.052;2022-11-24T06:04:46;97738.44;;;5.45;100.00
65276;BME280;51875;49.994;14.052;2022-11-24T06:06:02;97736.03;;;5.34;100.00
65276;BME280;51875;49.994;14.052;2022-11-24T06:07:17;97742.84;;;5.40;100.00
65276;BME280;51875;49.994;14.052;2022-11-24T06:08:33;97743.13;;;5.25;100.00
65276;BME280;51875;49.994;14.052;2022-11-24T06:09:49;97744.16;;;5.14;100.00
65276;BME280;51875;49.994;14.052;2022-11-24T06:11:04;97744.97;;;5.18;100.00
65276;BME280;51875;49.994;14.052;2022-11-24T06:12:32;97742.66;;;5.02;100.00
65276;BME280;51875;49.994;14.052;2022-11-24T06:13:48;97753.78;;;5.07;100.00
65276;BME280;51875;49.994;14.052;2022-11-24T06:15:04;97747.00;;;5.00;100.00
65276;BME280;51875;49.994;14.052;2022-11-24T06:16:19;97747.00;;;5.00;100.00
65276;BME280;51875;49.994;14.052;2022-11-24T06:17:35;97751.38;;;4.97;100.00
65276;BME280;51875;49.994;14.052;2022-11-24T06:18:51;97757.25;;;5.08;100.00
65276;BME280;51875;49.994;14.052;2022-11-24T06:20:08;97758.00;;;5.15;100.00
65276;BME280;51875;49.994;14.052;2022-11-24T06:21:23;97763.34;;;5.07;100.00
65276;BME280;51875;49.994;14.052;2022-11-24T06:22:39;97763.25;;;5.12;100.00
65276;BME280;51875;49.994;14.052;2022-11-24T06:23:55;97765.03;;;5.08;100.00
65276;BME280;51875;49.994;14.052;2022-11-24T06:25:10;97771.31;;;4.96;100.00
65276;BME280;51875;49.994;14.052;2022-11-24T06:26:26;97771.31;;;4.93;100.00
65276;BME280;51875;49.994;14.052;2022-11-24T06:27:42;97770.50;;;4.91;100.00
65276;BME280;51875;49.994;14.052;2022-11-24T06:28:58;97771.25;;;4.98;100.00
65276;BME280;51875;49.994;14.052;2022-11-24T06:30:14;97771.06;;;5.10;100.00
65276;BME280;51875;49.994;14.052;2022-11-24T06:31:29;97774.59;;;5.06;100.00
65276;BME280;51875;49.994;14.052;2022-11-24T06:32:45;97776.31;;;5.05;100.00
65276;BME280;51875;49.994;14.052;2022-11-24T06:34:01;97772.16;;;4.95;100.00
65276;BME280;51875;49.994;14.052;2022-11-24T06:35:16;97773.97;;;4.91;100.00
65276;BME280;51875;49.994;14.052;2022-11-24T06:36:32;97773.97;;;4.90;100.00
65276;BME280;51875;49.994;14.052;2022-11-24T06:37:48;97776.44;;;4.98;100.00
65276;BME280;51875;49.994;14.052;2022-11-24T06:39:04;97783.41;;;4.94;100.00
65276;BME280;51875;49.994;14.052;2022-11-24T06:40:20;97778.22;;;4.95;100.00
65276;BME280;51875;49.994;14.052;2022-11-24T06:41:36;97794.59;;;4.99;100.00
65276;BME280;51875;49.994;14.052;2022-11-24T06:42:51;97785.41;;;4.78;100.00
65276;BME280;51875;49.994;14.052;2022-11-24T06:44:07;97786.31;;;4.75;100.00